createdAt,value
2019-05-18T17:22:41.318Z,46.10
2019-05-18T17:25:07.821Z,45.76
2019-05-18T17:27:33.725Z,45.95
2019-05-18T17:29:59.598Z,46.47
2019-05-18T17:32:25.450Z,46.39
2019-05-18T17:34:51.343Z,46.50
2019-05-18T17:37:17.302Z,46.41
2019-05-18T17:39:43.150Z,46.37
2019-05-18T17:42:10.117Z,46.56
2019-05-18T17:44:35.980Z,46.80
2019-05-18T17:47:01.841Z,46.68
2019-05-18T17:49:27.691Z,46.45
2019-05-18T17:51:53.558Z,46.83
2019-05-18T17:54:19.463Z,46.71
2019-05-18T17:56:45.305Z,46.68
2019-05-18T17:59:11.151Z,46.94
2019-05-18T18:01:39.216Z,46.84
2019-05-18T18:04:05.090Z,47.16
2019-05-18T18:06:30.947Z,47.27
2019-05-18T18:08:56.801Z,47.16
2019-05-18T18:11:23.271Z,47.30
2019-05-18T18:13:49.135Z,48.56
2019-05-18T18:16:15.018Z,49.88
2019-05-18T18:18:40.886Z,50.68
2019-05-18T18:21:06.742Z,51.57
2019-05-18T18:23:32.591Z,51.99
2019-05-18T18:25:58.477Z,52.28
2019-05-18T18:28:24.423Z,52.45
2019-05-18T18:30:50.645Z,52.39
2019-05-18T18:33:16.525Z,52.43
2019-05-18T18:35:42.378Z,52.96
2019-05-18T18:38:08.232Z,53.10
2019-05-18T18:40:34.080Z,53.46
2019-05-18T18:43:00.035Z,53.73
2019-05-18T18:45:25.923Z,53.75
2019-05-18T18:47:51.760Z,53.71
2019-05-18T18:50:17.846Z,54.10
2019-05-18T18:52:43.707Z,53.28
2019-05-18T18:55:09.979Z,53.09
2019-05-18T18:57:41.342Z,52.82
2019-05-18T19:00:05.964Z,52.64
2019-05-18T19:02:31.816Z,52.84
2019-05-18T19:04:57.665Z,53.03
2019-05-18T19:07:23.525Z,53.17
2019-05-18T19:09:49.386Z,53.21
2019-05-18T19:12:15.502Z,53.58
2019-05-18T19:14:41.408Z,53.69
2019-05-18T19:17:07.459Z,53.77
2019-05-18T19:19:33.322Z,54.09
2019-05-18T19:21:59.176Z,54.61
2019-05-18T19:24:25.186Z,55.33
2019-05-18T19:26:51.218Z,55.71
2019-05-18T19:29:17.061Z,56.06
2019-05-18T19:31:42.934Z,56.86
2019-05-18T19:34:09.122Z,56.52
2019-05-18T19:36:35.003Z,56.27
2019-05-18T19:39:01.002Z,56.64
2019-05-18T19:41:27.613Z,57.21
2019-05-18T19:43:53.482Z,57.29
2019-05-18T19:46:19.527Z,57.97
2019-05-18T19:48:45.390Z,58.02
2019-05-18T19:51:11.266Z,58.86
2019-05-18T19:53:37.114Z,59.87
2019-05-18T19:56:02.980Z,60.64
2019-05-18T19:58:28.831Z,61.30
2019-05-18T20:00:54.688Z,61.62
2019-05-18T20:03:20.594Z,62.18
2019-05-18T20:05:46.463Z,62.45
2019-05-18T20:08:12.330Z,63.15
2019-05-18T20:10:38.189Z,62.92
2019-05-18T20:13:04.157Z,63.57
2019-05-18T20:15:30.038Z,63.83
2019-05-18T20:17:55.891Z,63.83
2019-05-18T20:20:21.854Z,63.83
2019-05-18T20:22:47.734Z,63.83
2019-05-18T20:25:13.838Z,63.83
2019-05-18T20:27:39.733Z,63.83
2019-05-18T20:30:06.406Z,63.83
2019-05-18T20:32:34.215Z,63.83
2019-05-18T20:35:00.031Z,63.85
2019-05-18T20:37:25.896Z,63.83
2019-05-18T20:39:51.777Z,63.83
2019-05-18T20:42:17.656Z,63.83
2019-05-18T20:44:43.543Z,35.78
2019-05-18T20:47:09.432Z,64.52
2019-05-18T20:49:35.345Z,64.52
2019-05-18T20:52:01.236Z,64.52
2019-05-18T20:54:27.093Z,64.52
2019-05-18T20:56:52.950Z,64.52
2019-05-18T20:59:18.812Z,64.52
2019-05-18T21:01:44.691Z,64.98
2019-05-18T21:04:10.609Z,64.67
2019-05-18T21:06:36.840Z,64.94
2019-05-18T21:09:04.406Z,64.76
2019-05-18T21:11:30.281Z,65.06
2019-05-18T21:13:57.823Z,65.32
2019-05-18T21:16:23.937Z,65.39
2019-05-18T21:18:49.960Z,100.00
2019-05-18T21:21:15.819Z,65.38
2019-05-18T21:23:41.685Z,65.62
2019-05-18T21:26:07.634Z,65.78
2019-05-18T21:28:34.464Z,65.56
2019-05-18T21:31:00.327Z,65.55
2019-05-18T21:33:26.192Z,65.96
2019-05-18T21:35:52.066Z,65.92
2019-05-18T21:38:17.923Z,66.17
2019-05-18T21:40:43.789Z,65.76
2019-05-18T21:43:09.650Z,66.58
2019-05-18T21:45:35.503Z,66.32
2019-05-18T21:48:01.353Z,66.39
2019-05-18T21:50:27.212Z,66.70
2019-05-18T21:52:53.277Z,66.76
2019-05-18T21:55:19.125Z,67.02
2019-05-18T21:57:45.091Z,66.97
2019-05-18T22:00:11.203Z,67.22
2019-05-18T22:02:37.314Z,66.95
2019-05-18T22:05:04.124Z,67.19
2019-05-18T22:07:29.995Z,67.48
2019-05-18T22:09:55.849Z,67.32
2019-05-18T22:12:21.746Z,67.50
2019-05-18T22:14:48.857Z,67.01
2019-05-18T22:17:15.682Z,67.36
2019-05-18T22:19:41.564Z,67.36
2019-05-18T22:22:07.443Z,66.73
2019-05-18T22:24:33.265Z,66.52
2019-05-18T22:26:59.129Z,66.52
2019-05-18T22:29:25.014Z,66.69
2019-05-18T22:31:50.883Z,66.39
2019-05-18T22:34:16.740Z,66.75
2019-05-18T22:36:42.615Z,66.90
2019-05-18T22:39:08.487Z,67.09
2019-05-18T22:41:34.850Z,66.86
2019-05-18T22:44:00.908Z,67.05
2019-05-18T22:46:26.842Z,67.15
2019-05-18T22:48:52.710Z,67.17
2019-05-18T22:51:18.569Z,67.17
2019-05-18T22:53:46.597Z,67.16
2019-05-18T22:56:12.205Z,67.47
2019-05-18T22:58:38.089Z,67.45
2019-05-18T23:01:04.059Z,67.24
2019-05-18T23:03:29.921Z,67.23
2019-05-18T23:05:55.788Z,67.24
2019-05-18T23:08:21.641Z,66.96
2019-05-18T23:10:47.529Z,66.70
2019-05-18T23:13:13.526Z,100.00
2019-05-18T23:15:39.480Z,66.94
2019-05-18T23:18:06.139Z,67.04
2019-05-18T23:20:32.028Z,67.02
2019-05-18T23:22:57.881Z,67.17
2019-05-18T23:25:23.772Z,67.80
2019-05-18T23:27:49.633Z,66.92
2019-05-18T23:30:16.543Z,67.40
2019-05-18T23:32:42.383Z,67.10
2019-05-18T23:35:08.453Z,66.94
2019-05-18T23:37:34.348Z,67.52
2019-05-18T23:40:00.246Z,67.16
2019-05-18T23:42:26.073Z,68.16
2019-05-18T23:44:51.937Z,68.41
2019-05-18T23:47:17.809Z,68.68
2019-05-18T23:49:43.663Z,68.45
2019-05-18T23:52:09.586Z,67.06
2019-05-18T23:54:35.438Z,67.64
2019-05-18T23:57:01.291Z,67.60
2019-05-18T23:59:27.161Z,67.13
